Time;durP1;ratioP1;P1;durP2;ratioP2;P2;SDS_P1;SDS_P2;PMS_P1;PMS_P2;Temp;Humidity;BMP_temperature;BMP_pressure;BME280_temperature;BME280_humidity;BME280_pressure;Samples;Min_cycle;Max_cycle;Signal;HPM_P1;HPM_P2
2022/04/17 00:01:14;;;;;;;3.13;2.33;;;;;;;11.54;37.46;101327.44;5041509;28;20037;-81
2022/04/17 00:03:41;;;;;;;3.28;2.60;;;;;;;11.50;37.17;101326.81;5022491;28;20101;-82
2022/04/17 00:06:08;;;;;;;5.72;3.42;;;;;;;11.49;37.55;101322.44;4991509;28;20453;-82
2022/04/17 00:08:35;;;;;;;3.92;3.22;;;;;;;11.56;37.21;101325.53;5027735;28;20832;-82
2022/04/17 00:11:01;;;;;;;4.70;2.85;;;;;;;11.54;37.02;101308.00;5027978;28;20392;-81
2022/04/17 00:13:29;;;;;;;4.25;3.10;;;;;;;11.51;37.24;101312.56;5040880;28;20053;-82
2022/04/17 00:15:56;;;;;;;4.68;2.83;;;;;;;11.40;37.81;101317.78;5041523;28;20037;-81
2022/04/17 00:18:23;;;;;;;4.10;2.95;;;;;;;11.34;37.82;101307.53;4990511;28;20049;-82
2022/04/17 00:20:49;;;;;;;4.07;2.65;;;;;;;11.27;38.02;101300.94;5025170;28;20103;-81
2022/04/17 00:23:16;;;;;;;2.83;2.13;;;;;;;11.37;37.59;101294.06;4997306;28;20496;-81
2022/04/17 00:25:43;;;;;;;4.53;2.45;;;;;;;11.44;37.71;101286.47;4975477;28;20042;-82
2022/04/17 00:28:10;;;;;;;3.17;2.30;;;;;;;11.45;37.73;101289.06;5009296;28;20505;-82
2022/04/17 00:30:36;;;;;;;3.10;2.28;;;;;;;11.42;37.85;101293.72;5000466;28;20045;-81
2022/04/17 00:33:03;;;;;;;4.97;2.42;;;;;;;11.38;38.00;101287.75;5021200;28;20050;-81
2022/04/17 00:35:30;;;;;;;4.40;2.92;;;;;;;11.35;37.96;101277.34;4977472;28;21458;-83
2022/04/17 00:37:57;;;;;;;4.22;2.40;;;;;;;11.44;37.77;101286.47;4980623;28;20057;-81
2022/04/17 00:40:23;;;;;;;4.68;2.65;;;;;;;11.41;37.71;101281.38;5024061;28;20065;-82
2022/04/17 00:42:50;;;;;;;2.83;2.47;;;;;;;11.42;37.58;101277.75;5030072;28;20056;-82
2022/04/17 00:45:17;;;;;;;3.05;2.42;;;;;;;11.42;37.64;101277.75;5019114;28;20045;-81
2022/04/17 00:47:46;;;;;;;3.63;2.47;;;;;;;11.43;37.70;101275.00;5020935;28;20042;-81
2022/04/17 00:50:13;;;;;;;4.10;2.40;;;;;;;11.43;37.51;101268.84;5002712;28;20831;-83
2022/04/17 00:52:40;;;;;;;4.55;2.35;;;;;;;11.29;37.91;101275.09;5010925;28;20046;-81
2022/04/17 00:55:07;;;;;;;3.33;2.05;;;;;;;11.35;37.80;101268.50;5028890;28;20052;-82
2022/04/17 00:57:35;;;;;;;5.22;2.55;;;;;;;11.36;37.92;101267.56;5027709;28;20045;-82
2022/04/17 01:00:03;;;;;;;4.25;2.35;;;;;;;11.37;38.02;101272.78;5005395;28;20045;-82
2022/04/17 01:02:36;;;;;;;2.60;2.40;;;;;;;11.29;38.25;101265.28;5017163;28;20042;-81
2022/04/17 01:05:04;;;;;;;3.97;2.45;;;;;;;11.34;38.13;101272.97;4983790;28;20049;-81
2022/04/17 01:07:30;;;;;;;2.75;2.13;;;;;;;11.36;37.80;101260.41;5004959;28;20046;-82
2022/04/17 01:09:57;;;;;;;3.78;2.30;;;;;;;11.39;38.04;101268.19;5003311;28;20058;-82
2022/04/17 01:12:25;;;;;;;3.90;2.25;;;;;;;11.40;38.36;101261.91;5000374;28;20045;-81
2022/04/17 01:14:52;;;;;;;2.53;2.00;;;;;;;11.42;38.04;101264.44;4963027;28;20492;-81
2022/04/17 01:17:19;;;;;;;3.38;2.13;;;;;;;11.40;38.28;101253.94;5028676;28;20049;-82
2022/04/17 01:19:46;;;;;;;2.47;2.20;;;;;;;11.42;38.66;101245.84;5018229;28;20053;-81
2022/04/17 01:22:15;;;;;;;3.40;2.10;;;;;;;11.44;38.72;101246.59;5036592;28;20043;-82
2022/04/17 01:27:28;;;;;;;3.00;2.20;;;;;;;11.45;38.72;101233.19;4960962;28;20060;-82
2022/04/17 01:29:54;;;;;;;3.13;2.30;;;;;;;11.45;38.66;101235.00;5003472;28;20041;-81
2022/04/17 01:32:22;;;;;;;5.10;2.40;;;;;;;11.45;38.78;101241.19;5011138;28;20639;-82
2022/04/17 01:34:49;;;;;;;4.10;2.10;;;;;;;11.45;38.98;101246.50;5009422;28;20045;-80
2022/04/17 01:37:20;;;;;;;3.97;2.20;;;;;;;11.46;38.93;101234.88;5029814;28;20049;-81
2022/04/17 01:39:47;;;;;;;3.35;2.30;;;;;;;11.46;39.15;101237.53;5017273;28;20104;-81
2022/04/17 01:42:14;;;;;;;2.97;2.10;;;;;;;11.47;38.94;101243.72;5015607;28;20049;-81
2022/04/17 01:44:40;;;;;;;3.75;2.00;;;;;;;11.46;38.90;101239.34;4974507;28;20041;-82
2022/04/17 01:47:07;;;;;;;3.80;1.92;;;;;;;11.45;39.10;101243.84;5003140;28;20041;-82
2022/04/17 01:49:35;;;;;;;4.47;2.15;;;;;;;11.43;39.15;101240.41;4983383;28;20081;-81
2022/04/17 01:52:02;;;;;;;4.75;2.42;;;;;;;11.43;39.15;101243.09;5003764;28;20038;-82
2022/04/17 01:54:29;;;;;;;4.40;2.70;;;;;;;11.43;38.57;101237.75;5028031;28;20053;-81
2022/04/17 01:56:56;;;;;;;3.55;2.10;;;;;;;11.40;38.67;101232.66;4998468;28;20410;-82
2022/04/17 01:59:23;;;;;;;4.18;2.25;;;;;;;11.40;38.54;101230.00;5029928;28;20051;-81
2022/04/17 02:01:51;;;;;;;3.30;2.60;;;;;;;11.34;38.49;101225.09;5035773;28;20586;-84
2022/04/17 02:04:18;;;;;;;4.13;2.47;;;;;;;11.32;38.75;101227.00;5024601;28;20037;-84
2022/04/17 02:06:45;;;;;;;3.38;2.47;;;;;;;11.32;38.85;101229.66;5008242;28;20072;-87
2022/04/17 02:09:14;;;;;;;2.88;2.05;;;;;;;11.29;38.67;101225.41;5027863;28;20560;-88
2022/04/17 02:11:42;;;;;;;3.85;2.30;;;;;;;11.29;38.00;101229.88;5014378;28;20095;-87
2022/04/17 02:14:09;;;;;;;3.13;2.10;;;;;;;11.24;38.56;101229.34;4998686;28;20041;-88
2022/04/17 02:16:37;;;;;;;4.75;2.42;;;;;;;11.24;38.83;101230.19;5036887;28;20048;-88
2022/04/17 02:19:04;;;;;;;5.18;2.30;;;;;;;11.24;38.52;101227.53;5023547;28;20080;-87
2022/04/17 02:21:31;;;;;;;5.40;2.65;;;;;;;11.23;38.93;101227.66;4975874;28;20118;-88
2022/04/17 02:24:00;;;;;;;3.92;2.17;;;;;;;11.20;38.85;101230.53;5029956;28;20057;-87
2022/04/17 02:26:27;;;;;;;3.70;2.30;;;;;;;11.19;38.78;101223.50;4998639;28;20488;-87
2022/04/17 02:28:56;;;;;;;3.80;2.45;;;;;;;11.18;39.09;101211.16;4990040;28;20176;-88
2022/04/17 02:31:24;;;;;;;3.67;2.28;;;;;;;11.18;38.89;101211.16;5025791;28;20124;-88
2022/04/17 02:33:51;;;;;;;4.72;2.60;;;;;;;11.19;39.21;101210.19;5007209;28;20038;-87
2022/04/17 02:36:19;;;;;;;3.75;2.60;;;;;;;11.18;39.35;101205.84;5008367;28;20512;-88
2022/04/17 02:38:46;;;;;;;3.97;2.25;;;;;;;11.18;39.20;101203.19;5013208;28;20500;-85
2022/04/17 02:41:13;;;;;;;3.08;2.47;;;;;;;11.18;39.34;101185.44;5026494;28;20128;-87
2022/04/17 02:43:39;;;;;;;4.97;2.35;;;;;;;11.18;39.57;101184.59;5018626;28;20205;-87
2022/04/17 02:46:06;;;;;;;2.67;2.35;;;;;;;11.17;39.09;101181.09;4999065;28;20049;-86
2022/04/17 02:48:34;;;;;;;4.00;2.38;;;;;;;11.15;38.96;101177.69;5002848;28;20053;-87
2022/04/17 02:51:02;;;;;;;4.20;2.70;;;;;;;11.14;39.72;101178.59;5043090;28;20055;-87
2022/04/17 02:53:32;;;;;;;4.75;2.38;;;;;;;11.13;39.23;101171.59;4992160;28;20452;-86
2022/04/17 02:56:00;;;;;;;2.60;2.40;;;;;;;11.02;39.56;101198.94;4975361;28;20079;-88
2022/04/17 02:58:27;;;;;;;2.25;1.92;;;;;;;10.99;40.05;101192.97;4990692;28;20042;-88
2022/04/17 03:06:25;;;;;;;5.75;2.72;;;;;;;10.84;39.62;101201.03;5024523;28;20500;-87
2022/04/17 03:08:52;;;;;;;4.47;2.78;;;;;;;10.70;39.31;101195.78;4981952;28;20041;-87
2022/04/17 03:11:19;;;;;;;3.85;2.45;;;;;;;10.56;39.62;101188.75;5001775;28;20052;-87
2022/04/17 03:13:47;;;;;;;3.95;2.60;;;;;;;10.60;39.46;101192.06;5040934;28;20045;-87
2022/04/17 03:16:15;;;;;;;3.60;2.38;;;;;;;10.55;39.68;101202.97;5009194;28;20046;-87
2022/04/17 03:18:42;;;;;;;3.90;2.53;;;;;;;10.55;39.96;101200.31;5026607;28;20396;-86
2022/04/17 03:21:09;;;;;;;3.70;2.55;;;;;;;10.50;39.91;101210.41;5048749;28;20045;-87
2022/04/17 03:23:36;;;;;;;4.65;2.40;;;;;;;10.47;40.10;101220.38;5017227;28;20056;-86
2022/04/17 03:26:03;;;;;;;5.18;2.60;;;;;;;10.42;40.13;101216.22;5041070;28;20064;-86
2022/04/17 03:28:31;;;;;;;4.57;2.65;;;;;;;10.41;40.12;101214.53;5009612;28;20516;-87
2022/04/17 03:30:57;;;;;;;3.67;2.90;;;;;;;10.41;40.48;101208.38;5029593;28;20053;-88
2022/04/17 03:33:27;;;;;;;4.85;2.38;;;;;;;10.41;40.36;101208.38;4983922;28;20071;-87
2022/04/17 03:35:55;;;;;;;3.55;2.30;;;;;;;10.41;40.24;101203.91;5004621;28;20050;-87
2022/04/17 03:38:21;;;;;;;3.25;2.75;;;;;;;10.39;40.25;101199.66;5010654;28;20034;-88
2022/04/17 03:40:48;;;;;;;3.92;2.45;;;;;;;10.37;40.55;101193.59;5038374;28;20041;-87
2022/04/17 03:43:15;;;;;;;6.85;2.70;;;;;;;10.36;40.43;101197.19;5018767;28;20050;-83
2022/04/17 03:45:46;;;;;;;3.70;2.58;;;;;;;10.34;40.47;101191.13;5040115;28;20053;-83
2022/04/17 03:48:17;;;;;;;3.38;2.55;;;;;;;10.32;40.26;101190.38;5025463;28;20049;-83
2022/04/17 03:50:44;;;;;;;3.47;2.65;;;;;;;10.30;40.26;101189.63;5002078;28;20435;-83
2022/04/17 03:53:11;;;;;;;3.65;2.75;;;;;;;10.29;40.32;101190.59;4992315;28;20045;-83
2022/04/17 03:55:38;;;;;;;3.85;2.53;;;;;;;10.18;40.33;101184.16;5011403;28;20052;-83
2022/04/17 03:58:06;;;;;;;2.85;2.30;;;;;;;10.09;41.04;101181.22;5013014;28;20061;-83
2022/04/17 04:00:33;;;;;;;4.22;2.40;;;;;;;10.09;40.88;101184.72;4964399;28;20037;-83
2022/04/17 04:03:05;;;;;;;4.38;2.40;;;;;;;10.11;41.20;101180.19;4989234;28;20051;-83
2022/04/17 04:05:31;;;;;;;5.72;2.80;;;;;;;10.12;40.67;101179.22;4999447;28;20052;-83
2022/04/17 04:07:58;;;;;;;5.63;2.90;;;;;;;10.11;40.65;101169.56;5026833;28;20049;-83
2022/04/17 04:10:25;;;;;;;4.82;2.90;;;;;;;10.12;40.91;101184.53;5028138;28;20063;-83
2022/04/17 04:12:52;;;;;;;4.50;2.33;;;;;;;10.14;40.55;101181.78;5005511;28;20515;-83
2022/04/17 04:15:19;;;;;;;3.10;2.33;;;;;;;10.10;40.53;101177.63;5014181;28;20488;-83
2022/04/17 04:17:45;;;;;;;5.50;2.95;;;;;;;10.07;40.66;101185.78;5005344;28;20072;-83
2022/04/17 04:20:12;;;;;;;4.53;2.40;;;;;;;10.05;40.60;101193.88;5034621;28;20053;-83
2022/04/17 04:22:39;;;;;;;5.60;2.90;;;;;;;9.99;40.95;101187.13;4992064;28;20505;-83
2022/04/17 04:25:07;;;;;;;3.95;2.55;;;;;;;9.94;40.86;101183.91;5000784;28;20045;-83
2022/04/17 04:30:20;;;;;;;3.60;2.58;;;;;;;9.87;41.00;101177.31;4995880;28;20444;-83
2022/04/17 04:32:52;;;;;;;4.32;2.78;;;;;;;9.83;41.43;101188.22;5038772;28;20179;-83
2022/04/17 04:35:19;;;;;;;3.13;2.50;;;;;;;9.86;41.56;101186.22;5019677;28;20041;-83
2022/04/17 04:37:46;;;;;;;3.30;2.17;;;;;;;9.85;41.21;101181.88;5019175;28;20532;-83
2022/04/17 04:40:13;;;;;;;3.00;2.30;;;;;;;9.89;41.67;101171.91;5012030;28;20120;-83
2022/04/17 04:42:42;;;;;;;3.72;2.58;;;;;;;9.88;42.13;101173.72;5011112;28;20082;-83
2022/04/17 04:47:54;;;;;;;3.78;2.20;;;;;;;9.88;42.25;101170.22;4992087;28;20132;-83
2022/04/17 04:50:21;;;;;;;3.50;2.67;;;;;;;9.88;42.32;101180.81;5041117;28;20047;-83
2022/04/17 04:52:47;;;;;;;3.78;3.08;;;;;;;9.87;42.30;101176.44;5031149;28;20046;-83
2022/04/17 04:55:14;;;;;;;3.65;2.63;;;;;;;9.87;42.73;101179.09;5000358;28;20058;-83
2022/04/17 04:57:41;;;;;;;3.47;2.50;;;;;;;9.85;42.34;101186.34;4986185;28;20052;-83
2022/04/17 05:00:08;;;;;;;5.28;2.90;;;;;;;9.85;42.45;101186.34;5031005;28;20041;-83
2022/04/17 05:02:35;;;;;;;4.20;2.55;;;;;;;9.83;42.54;101189.06;5022892;28;20041;-83
2022/04/17 05:05:05;;;;;;;4.60;2.50;;;;;;;9.82;43.11;101189.16;4991394;28;20053;-83
2022/04/17 05:07:32;;;;;;;3.58;2.72;;;;;;;9.83;42.61;101194.38;5009843;28;20132;-83
2022/04/17 05:10:02;;;;;;;2.85;2.40;;;;;;;9.83;42.67;101190.88;5011285;28;20042;-83
2022/04/17 05:12:29;;;;;;;4.20;3.35;;;;;;;9.82;42.68;101195.34;4973324;28;20050;-83
2022/04/17 05:14:56;;;;;;;3.53;2.72;;;;;;;9.78;42.90;101201.78;5048066;28;20044;-83
2022/04/17 05:17:23;;;;;;;5.80;2.78;;;;;;;9.79;42.92;101206.13;5037799;28;20052;-83
2022/04/17 05:19:50;;;;;;;3.83;2.88;;;;;;;9.76;42.89;101209.81;5021483;28;20045;-83
2022/04/17 05:22:17;;;;;;;3.55;2.47;;;;;;;9.75;42.56;101210.78;5013681;28;20112;-83
2022/04/17 05:24:45;;;;;;;4.45;2.70;;;;;;;9.68;42.44;101206.81;5032158;28;20049;-82
2022/04/17 05:27:13;;;;;;;5.45;2.60;;;;;;;9.74;42.58;101205.56;5026889;28;20071;-83
2022/04/17 05:29:40;;;;;;;5.00;3.45;;;;;;;9.76;42.49;101206.31;5011275;28;20041;-83
2022/04/17 05:32:08;;;;;;;5.18;2.75;;;;;;;9.76;42.60;101199.19;5013429;28;20126;-83
2022/04/17 05:34:35;;;;;;;3.75;2.85;;;;;;;9.76;42.31;101198.34;5007519;28;20041;-83
2022/04/17 05:37:03;;;;;;;3.30;2.60;;;;;;;9.76;42.60;101196.56;5043379;28;20037;-83
2022/04/17 05:39:30;;;;;;;4.82;2.67;;;;;;;9.79;42.73;101200.81;5008525;28;20129;-83
2022/04/17 05:41:58;;;;;;;17.25;3.53;;;;;;;9.76;42.46;101201.84;5002141;28;20049;-83
2022/04/17 05:44:26;;;;;;;3.10;2.58;;;;;;;9.72;42.96;101204.81;5043441;28;20083;-83
2022/04/17 05:46:55;;;;;;;6.45;2.90;;;;;;;9.68;42.86;101206.81;4995075;28;20041;-83
2022/04/17 05:49:22;;;;;;;3.58;3.00;;;;;;;9.68;42.81;101198.84;5042256;28;20050;-83
2022/04/17 05:51:49;;;;;;;5.20;2.63;;;;;;;9.69;42.81;101205.88;5026296;28;20069;-83
2022/04/17 05:54:16;;;;;;;4.80;2.88;;;;;;;9.73;42.67;101196.75;5033263;28;20050;-83
2022/04/17 05:56:43;;;;;;;4.35;2.88;;;;;;;9.73;42.57;101191.44;5011354;28;20488;-83
2022/04/17 05:59:09;;;;;;;3.38;3.05;;;;;;;9.76;42.52;101190.41;5036859;28;20061;-84
2022/04/17 06:01:36;;;;;;;6.55;3.13;;;;;;;9.72;42.39;101187.09;5028145;28;20037;-83
2022/04/17 06:04:03;;;;;;;4.85;2.97;;;;;;;9.48;43.38;101186.81;5002973;28;20548;-83
2022/04/17 06:06:30;;;;;;;4.70;2.65;;;;;;;9.66;42.78;101190.13;5041141;28;20437;-83
2022/04/17 06:08:56;;;;;;;5.78;2.90;;;;;;;9.71;42.93;101198.66;4985635;28;20041;-83
2022/04/17 06:11:23;;;;;;;3.92;2.85;;;;;;;9.72;42.95;101200.38;5048004;28;20042;-83
2022/04/17 06:13:50;;;;;;;4.60;2.83;;;;;;;9.73;42.98;101180.84;5012338;28;20041;-83
2022/04/17 06:16:17;;;;;;;6.40;2.92;;;;;;;9.68;43.37;101185.59;4989574;28;20042;-83
2022/04/17 06:18:43;;;;;;;6.25;2.90;;;;;;;9.72;42.96;101175.66;5001031;28;20488;-83
2022/04/17 06:21:11;;;;;;;4.90;2.97;;;;;;;9.75;43.49;101178.94;5028277;28;20056;-83
2022/04/17 06:23:39;;;;;;;4.28;2.95;;;;;;;9.80;43.41;101177.81;4996799;28;20127;-83
2022/04/17 06:26:08;;;;;;;3.72;2.85;;;;;;;9.73;43.43;101175.53;4999095;28;20077;-83
2022/04/17 06:28:36;;;;;;;6.50;3.55;;;;;;;9.74;43.47;101168.41;5007038;28;20072;-83
2022/04/17 06:31:04;;;;;;;4.57;3.00;;;;;;;9.72;43.66;101162.38;4993558;28;20049;-84
2022/04/17 06:33:32;;;;;;;4.80;2.97;;;;;;;9.78;43.62;101167.28;5017930;28;20370;-83
2022/04/17 06:35:59;;;;;;;7.00;2.90;;;;;;;9.84;43.45;101163.38;5007578;28;20049;-83
2022/04/17 06:38:25;;;;;;;5.00;2.97;;;;;;;9.81;43.53;101166.25;5008883;28;20405;-83
2022/04/17 06:40:52;;;;;;;4.97;3.00;;;;;;;9.82;43.34;101168.81;5044079;28;20049;-83
2022/04/17 06:43:19;;;;;;;5.80;3.20;;;;;;;9.77;43.94;101163.78;5011834;28;20071;-83
2022/04/17 06:45:46;;;;;;;5.30;2.95;;;;;;;9.89;43.60;101162.13;5013548;28;20511;-83
2022/04/17 06:48:17;;;;;;;5.53;3.47;;;;;;;9.86;43.88;101162.34;5028423;28;20038;-83
2022/04/17 06:50:46;;;;;;;3.90;2.97;;;;;;;9.84;43.94;101163.38;5007253;28;20038;-83
2022/04/17 06:53:14;;;;;;;6.95;2.90;;;;;;;9.90;43.79;101163.00;5015744;28;20080;-83
2022/04/17 06:55:40;;;;;;;5.45;2.75;;;;;;;9.94;43.94;101164.50;4981565;28;20053;-83
2022/04/17 06:58:10;;;;;;;4.85;3.15;;;;;;;9.89;43.81;101166.59;4987715;28;20056;-83
2022/04/17 07:00:37;;;;;;;4.22;3.20;;;;;;;9.83;44.26;101162.53;5013766;28;20536;-83
2022/04/17 07:03:04;;;;;;;4.00;2.70;;;;;;;9.95;43.55;101160.91;5012707;28;20044;-83
2022/04/17 07:05:31;;;;;;;5.25;3.10;;;;;;;9.98;43.58;101158.91;5021324;28;21176;-83
2022/04/17 07:08:00;;;;;;;4.22;3.03;;;;;;;9.86;44.03;101157.03;5009706;28;20064;-83
2022/04/17 07:10:28;;;;;;;3.83;3.05;;;;;;;9.95;44.29;101155.59;5018007;28;20049;-84
2022/04/17 07:12:55;;;;;;;4.15;3.00;;;;;;;9.99;43.88;101159.75;5030735;28;20044;-83
2022/04/17 07:15:26;;;;;;;4.15;2.95;;;;;;;10.00;43.73;101153.50;5029257;28;21020;-83
2022/04/17 07:17:54;;;;;;;3.78;2.67;;;;;;;10.07;44.01;101149.47;5010968;28;20057;-83
2022/04/17 07:20:21;;;;;;;4.35;2.60;;;;;;;10.13;44.31;101141.13;5010579;28;20386;-83
2022/04/17 07:22:49;;;;;;;4.20;2.55;;;;;;;10.16;43.88;101138.25;4981188;28;20064;-83
2022/04/17 07:25:19;;;;;;;4.03;2.80;;;;;;;10.14;43.55;101140.16;5001996;28;20073;-83
2022/04/17 07:27:47;;;;;;;3.05;2.42;;;;;;;10.16;43.83;101148.88;5005536;28;20042;-84
2022/04/17 07:30:16;;;;;;;3.67;2.58;;;;;;;10.20;44.18;101139.78;5045379;28;20119;-85
2022/04/17 07:32:46;;;;;;;5.97;2.92;;;;;;;10.25;43.62;101139.44;4995507;28;20411;-87
2022/04/17 07:35:15;;;;;;;5.13;2.50;;;;;;;10.29;43.72;101134.84;4993810;28;20052;-87
2022/04/17 07:37:46;;;;;;;5.63;2.88;;;;;;;10.32;43.42;101142.59;5005582;28;20068;-87
2022/04/17 07:40:17;;;;;;;3.50;2.08;;;;;;;10.38;43.26;101132.44;5041907;28;20053;-88
2022/04/17 07:42:45;;;;;;;3.83;2.22;;;;;;;10.42;43.17;101131.25;4992798;28;20056;-87
2022/04/17 07:45:13;;;;;;;3.15;2.22;;;;;;;10.47;42.65;101122.13;5026115;28;20049;-86
2022/04/17 07:47:41;;;;;;;3.92;2.30;;;;;;;10.50;42.52;101120.09;5020087;28;20048;-86
2022/04/17 07:50:08;;;;;;;2.50;1.90;;;;;;;10.54;42.72;101115.47;5006115;28;20548;-86
2022/04/17 07:52:35;;;;;;;3.92;2.10;;;;;;;10.54;42.69;101116.31;5004534;28;20045;-87
2022/04/17 07:55:03;;;;;;;5.95;2.40;;;;;;;10.55;42.98;101117.16;4989631;28;20046;-87
2022/04/17 07:57:55;;;;;;;3.03;1.90;;;;;;;10.55;42.19;101112.69;5044262;28;20408;-86
2022/04/17 08:00:21;;;;;;;3.45;1.73;;;;;;;10.60;41.59;101109.72;5034039;28;20057;-86
2022/04/17 08:03:20;;;;;;;3.42;1.80;;;;;;;10.71;41.85;101101.00;4999025;28;20053;-87
2022/04/17 08:05:48;;;;;;;3.85;2.05;;;;;;;10.69;42.02;101087.00;5000811;28;20402;-87
2022/04/17 08:08:14;;;;;;;3.28;2.55;;;;;;;10.67;42.22;101089.75;4984446;28;20046;-87
2022/04/17 08:10:42;;;;;;;2.70;2.30;;;;;;;10.69;42.01;101087.00;4983772;28;20053;-85
2022/04/17 08:13:11;;;;;;;3.30;2.00;;;;;;;10.71;41.96;101080.63;4990918;28;20460;-86
2022/04/17 08:15:37;;;;;;;3.88;2.03;;;;;;;10.74;42.00;101075.09;5023581;28;20083;-86
2022/04/17 08:18:05;;;;;;;5.55;3.15;;;;;;;10.77;42.18;101069.56;4981015;28;20051;-86
2022/04/17 08:20:32;;;;;;;3.58;2.40;;;;;;;10.82;41.93;101069.25;5026985;28;20075;-86
2022/04/17 08:22:59;;;;;;;3.83;2.10;;;;;;;10.82;42.21;101066.59;5020910;28;20435;-86
2022/04/17 08:25:25;;;;;;;3.90;2.47;;;;;;;10.85;42.17;101066.38;4982760;28;20056;-87
2022/04/17 08:27:54;;;;;;;3.58;2.03;;;;;;;10.91;42.18;101063.28;5013916;28;20126;-81
2022/04/17 08:30:21;;;;;;;4.68;2.40;;;;;;;10.91;42.21;101057.94;5045330;28;20072;-81
2022/04/17 08:32:48;;;;;;;3.03;2.28;;;;;;;10.94;41.47;101055.09;5041829;28;20053;-81
2022/04/17 08:35:19;;;;;;;3.65;2.10;;;;;;;10.88;41.62;101055.50;5035771;28;20052;-81
2022/04/17 08:37:46;;;;;;;2.83;2.30;;;;;;;10.93;41.66;101063.16;5007654;28;20049;-81
2022/04/17 08:40:14;;;;;;;3.13;2.30;;;;;;;10.96;41.18;101068.25;5005583;28;20494;-80
2022/04/17 08:42:41;;;;;;;2.35;2.10;;;;;;;10.90;41.78;101066.91;4980735;28;20052;-79
2022/04/17 08:45:11;;;;;;;3.95;2.47;;;;;;;10.92;41.06;101061.50;5001348;28;20045;-81
2022/04/17 08:47:40;;;;;;;2.33;1.95;;;;;;;10.91;41.63;101063.28;5012878;28;20045;-81
2022/04/17 08:50:12;;;;;;;3.05;2.25;;;;;;;10.90;41.75;101066.06;4987749;28;20429;-81
2022/04/17 08:52:39;;;;;;;4.03;2.35;;;;;;;10.96;41.32;101060.28;5012467;28;20682;-81
2022/04/17 08:55:07;;;;;;;5.43;2.50;;;;;;;10.96;41.21;101054.97;4995612;28;20437;-81
2022/04/17 08:57:34;;;;;;;2.97;2.10;;;;;;;10.99;41.79;101055.63;4993112;28;20065;-81
2022/04/17 09:00:03;;;;;;;3.55;2.20;;;;;;;11.00;41.12;101045.84;5007155;28;20056;-80
2022/04/17 09:02:31;;;;;;;2.53;2.33;;;;;;;11.00;41.64;101045.84;5010782;28;20659;-81
2022/04/17 09:04:58;;;;;;;4.50;2.38;;;;;;;11.04;41.21;101037.53;5015060;28;20084;-81
2022/04/17 09:07:38;;;;;;;3.10;2.20;;;;;;;11.02;41.34;101027.97;5014151;28;20049;-80
2022/04/17 09:10:05;;;;;;;6.40;2.20;;;;;;;11.04;41.41;101024.25;5023202;28;20037;-80
2022/04/17 09:12:32;;;;;;;2.80;2.25;;;;;;;11.09;41.34;101034.53;5030559;28;20065;-80
2022/04/17 09:14:59;;;;;;;3.88;2.05;;;;;;;11.09;41.10;101029.22;4998169;28;20049;-80
2022/04/17 09:17:31;;;;;;;3.50;2.45;;;;;;;11.03;40.93;101019.88;5028786;28;20500;-80
2022/04/17 09:20:00;;;;;;;4.47;2.08;;;;;;;11.08;41.54;101027.53;4964722;28;20401;-80
2022/04/17 09:22:46;;;;;;;3.15;1.90;;;;;;;10.99;41.40;101020.19;4951716;28;20502;-80
2022/04/17 09:25:18;;;;;;;4.38;2.08;;;;;;;11.11;41.65;101018.50;4958385;28;20140;-80
2022/04/17 09:27:56;;;;;;;4.30;2.20;;;;;;;11.02;38.42;101022.66;4982293;28;20057;-80
2022/04/17 09:30:38;;;;;;;2.03;1.80;;;;;;;11.09;40.49;101002.63;4951423;28;20487;-80
2022/04/17 09:33:12;;;;;;;5.30;1.92;;;;;;;11.23;40.64;101002.50;4953011;28;20537;-81
2022/04/17 09:35:53;;;;;;;4.45;1.80;;;;;;;11.15;40.99;101004.03;4986635;28;20457;-80
2022/04/17 09:38:27;;;;;;;4.13;1.70;;;;;;;11.34;39.87;101009.69;4966429;28;20043;-81
2022/04/17 09:41:07;;;;;;;3.42;2.10;;;;;;;11.23;40.50;101009.63;4963688;28;20582;-80
2022/04/17 09:43:35;;;;;;;3.75;2.17;;;;;;;11.21;40.38;101007.06;4927877;28;20153;-80
2022/04/17 09:46:07;;;;;;;5.07;2.55;;;;;;;11.34;41.69;101004.38;4948612;28;20061;-80
2022/04/17 09:48:37;;;;;;;4.82;2.10;;;;;;;11.21;40.13;101006.22;4958839;28;20997;-81
2022/04/17 09:51:23;;;;;;;3.50;1.92;;;;;;;11.27;40.64;101003.13;4958929;28;20362;-80
2022/04/17 09:53:59;;;;;;;2.33;1.75;;;;;;;11.28;39.44;100994.19;4994994;28;20058;-81
2022/04/17 09:56:32;;;;;;;3.40;2.22;;;;;;;11.34;39.26;101003.53;5010698;28;20045;-80
2022/04/17 09:58:59;;;;;;;3.80;1.88;;;;;;;11.34;39.79;100993.72;5028496;28;20056;-80
2022/04/17 10:01:27;;;;;;;3.50;2.03;;;;;;;11.39;39.69;100988.94;5032001;28;20412;-81
2022/04/17 10:03:56;;;;;;;3.25;2.10;;;;;;;11.53;39.67;100990.59;5009384;28;20064;-81
2022/04/17 10:06:23;;;;;;;6.88;1.85;;;;;;;11.60;39.79;100990.97;4998307;28;20041;-81
2022/04/17 10:08:50;;;;;;;4.15;1.90;;;;;;;11.49;38.96;100994.41;5012434;28;20048;-80
2022/04/17 10:11:17;;;;;;;2.22;1.73;;;;;;;11.57;38.14;100983.22;5028519;28;20759;-79
2022/04/17 10:13:45;;;;;;;5.38;1.95;;;;;;;11.58;38.53;100987.59;5018122;28;20045;-80
2022/04/17 10:16:13;;;;;;;3.08;1.70;;;;;;;11.47;38.53;100969.75;5050606;28;20044;-80
2022/04/17 10:18:42;;;;;;;3.45;1.90;;;;;;;11.47;38.30;100973.28;5007152;28;20056;-82
2022/04/17 10:21:09;;;;;;;2.67;1.90;;;;;;;11.63;37.35;100980.97;5027832;28;20046;-82
2022/04/17 10:23:42;;;;;;;2.63;1.83;;;;;;;11.54;37.65;100963.00;5012295;28;20443;-82
2022/04/17 10:26:13;;;;;;;5.20;2.67;;;;;;;11.59;37.99;100960.00;5006615;28;20551;-80
2022/04/17 10:28:44;;;;;;;3.60;1.90;;;;;;;11.70;36.89;100955.59;5022120;28;20044;-80
2022/04/17 10:31:17;;;;;;;3.38;1.98;;;;;;;11.65;37.47;100962.19;5041511;28;20048;-80
2022/04/17 10:34:11;;;;;;;3.95;1.95;;;;;;;11.54;38.17;100936.41;5042019;28;20125;-80
2022/04/17 10:36:56;;;;;;;3.15;2.00;;;;;;;11.62;37.57;100938.50;4974050;28;21085;-79
2022/04/17 10:39:29;;;;;;;3.67;2.38;;;;;;;11.69;36.68;100931.75;4986305;28;20037;-80
2022/04/17 10:41:57;;;;;;;;;;;;;;;11.44;37.37;100930.09;5004279;28;20099;-80
2022/04/17 10:44:28;;;;;;;2.92;1.90;;;;;;;11.69;37.95;100924.63;5031603;28;19922;-79
2022/04/17 10:46:56;;;;;;;4.68;2.47;;;;;;;11.68;38.45;100912.28;5002868;28;20049;-79
2022/04/17 10:49:29;;;;;;;5.32;2.33;;;;;;;11.77;38.24;100909.88;5015066;28;20095;-80
2022/04/17 10:51:59;;;;;;;3.05;1.83;;;;;;;11.76;38.37;100909.03;5018139;28;20042;-79
2022/04/17 10:54:47;;;;;;;3.17;2.33;;;;;;;11.71;39.10;100909.38;5038201;28;20144;-78
2022/04/17 10:57:21;;;;;;;4.47;2.20;;;;;;;11.78;39.82;100906.25;4999574;28;20056;-79
2022/04/17 10:59:48;;;;;;;3.45;2.17;;;;;;;11.88;38.51;100907.28;4996977;28;20042;-80
2022/04/17 11:02:17;;;;;;;4.25;2.40;;;;;;;12.01;38.17;100900.06;5018175;28;20429;-81
2022/04/17 11:04:53;;;;;;;2.47;1.90;;;;;;;12.01;38.25;100907.16;5032987;28;20049;-80
2022/04/17 11:07:28;;;;;;;2.92;2.03;;;;;;;12.09;37.23;100894.97;4997550;28;20128;-81
2022/04/17 11:10:08;;;;;;;2.90;1.70;;;;;;;12.01;37.56;100883.22;5041512;28;20125;-80
2022/04/17 11:12:46;;;;;;;4.15;2.15;;;;;;;12.00;36.74;100905.50;5014019;28;20042;-80
2022/04/17 11:15:13;;;;;;;3.38;1.80;;;;;;;12.12;37.80;100891.22;4999283;28;20044;-80
2022/04/17 11:17:41;;;;;;;5.10;2.20;;;;;;;12.13;38.49;100880.44;5009164;28;20400;-80
2022/04/17 11:20:09;;;;;;;3.97;1.85;;;;;;;12.23;37.78;100872.59;5045319;28;20119;-81
2022/04/17 11:22:38;;;;;;;7.47;2.63;;;;;;;12.26;38.37;100896.34;5026407;28;20469;-80
2022/04/17 11:25:08;;;;;;;3.72;1.98;;;;;;;12.30;36.25;100873.78;5000504;28;20047;-79
2022/04/17 11:27:46;;;;;;;3.53;2.05;;;;;;;12.27;36.69;100867.88;4991531;28;20050;-81
2022/04/17 11:30:34;;;;;;;2.40;1.85;;;;;;;12.32;35.63;100868.34;4945808;28;20037;-80
2022/04/17 11:33:01;;;;;;;3.75;1.67;;;;;;;12.19;37.32;100857.84;4977705;28;20045;-81
2022/04/17 11:35:30;;;;;;;7.57;2.30;;;;;;;12.13;36.68;100864.47;4991575;28;20073;-81
2022/04/17 11:38:02;;;;;;;3.67;2.20;;;;;;;12.12;36.85;100854.78;4973680;28;20054;-80
2022/04/17 11:40:31;;;;;;;3.42;1.75;;;;;;;12.19;37.29;100851.63;4968781;28;20517;-81
2022/04/17 11:43:05;;;;;;;4.80;2.00;;;;;;;12.15;36.90;100856.38;4989030;28;20129;-81
2022/04/17 11:45:32;;;;;;;3.55;2.28;;;;;;;12.45;37.47;100846.91;4983901;28;20472;-80
2022/04/17 11:48:06;;;;;;;3.70;2.08;;;;;;;12.34;36.73;100842.47;4984059;28;20096;-81